RJCO(METAR)
06/25 08:00
METAR RJCO 242300Z 12004KT 9999 FEW020 18/13 Q1016 RMK 1CU020 A3002=
戻る
トップページへ戻る
IMOC Co,.Ltd.